Time;durP1;ratioP1;P1;durP2;ratioP2;P2;SDS_P1;SDS_P2;PMS_P1;PMS_P2;Temp;Humidity;BMP_temperature;BMP_pressure;BME280_temperature;BME280_humidity;BME280_pressure;Samples;Min_cycle;Max_cycle;Signal;HPM_P1;HPM_P2
2023/05/14 00:02:20;;;;;;;18.33;17.23;;;13.50;99.90;;;;;;4885140;29;20462;-84
2023/05/14 00:04:49;;;;;;;18.87;17.97;;;13.50;1.00;;;;;;4887413;29;21064;-85
2023/05/14 00:07:17;;;;;;;18.80;17.80;;;13.40;1.00;;;;;;4890406;29;21034;-86
2023/05/14 00:09:46;;;;;;;18.60;17.80;;;13.40;1.00;;;;;;4890021;29;20571;-84
2023/05/14 00:12:14;;;;;;;18.77;18.00;;;13.40;1.00;;;;;;4902213;29;21010;-84
2023/05/14 00:14:42;;;;;;;18.80;17.90;;;13.40;1.00;;;;;;4884342;29;21125;-83
2023/05/14 00:17:10;;;;;;;18.50;17.60;;;13.50;1.00;;;;;;4887882;29;20473;-84
2023/05/14 00:19:40;;;;;;;19.40;18.40;;;13.40;1.00;;;;;;4887048;29;20457;-84
2023/05/14 00:22:10;;;;;;;19.87;19.07;;;13.40;99.90;;;;;;4888269;29;20531;-84
2023/05/14 00:24:39;;;;;;;18.93;18.20;;;13.40;99.90;;;;;;4888862;29;20472;-84
2023/05/14 00:27:07;;;;;;;20.10;19.23;;;13.40;99.90;;;;;;4883545;29;20468;-85
2023/05/14 00:29:35;;;;;;;19.30;18.40;;;13.40;99.90;;;;;;4889334;29;20466;-84
2023/05/14 00:32:04;;;;;;;19.73;18.93;;;13.40;99.90;;;;;;4885804;29;20555;-84
2023/05/14 00:34:32;;;;;;;19.83;18.93;;;13.40;1.00;;;;;;4887909;29;20488;-83
2023/05/14 00:37:00;;;;;;;19.00;18.10;;;13.40;99.90;;;;;;4887605;29;20473;-84
2023/05/14 00:39:30;;;;;;;19.60;18.53;;;13.40;1.00;;;;;;4889049;29;20752;-84
2023/05/14 00:41:59;;;;;;;19.57;18.67;;;13.40;1.00;;;;;;4889522;29;20463;-83
2023/05/14 00:44:27;;;;;;;19.93;18.93;;;13.40;1.00;;;;;;4902755;29;20484;-83
2023/05/14 00:46:56;;;;;;;19.00;18.10;;;13.40;1.00;;;;;;4886103;29;20453;-85
2023/05/14 00:49:24;;;;;;;19.67;18.87;;;13.30;1.00;;;;;;4887390;29;20466;-84
2023/05/14 00:51:53;;;;;;;20.03;18.80;;;13.40;1.00;;;;;;4885894;29;20461;-84
2023/05/14 00:54:21;;;;;;;20.47;19.53;;;13.40;1.00;;;;;;4885072;29;20743;-85
2023/05/14 00:56:51;;;;;;;19.47;18.67;;;13.40;1.00;;;;;;4888395;29;20556;-85
2023/05/14 00:59:19;;;;;;;19.73;18.73;;;13.40;1.00;;;;;;4887265;29;20990;-85
2023/05/14 01:01:47;;;;;;;19.03;18.13;;;13.40;1.00;;;;;;4889628;29;20542;-84
2023/05/14 01:04:16;;;;;;;19.27;18.37;;;13.40;1.00;;;;;;4887436;29;20562;-84
2023/05/14 01:06:55;;;;;;;19.40;18.40;;;13.40;1.00;;;;;;4886801;29;20536;-85
2023/05/14 01:09:29;;;;;;;18.60;17.80;;;13.30;1.00;;;;;;4888905;29;20462;-84
2023/05/14 01:12:08;;;;;;;19.00;18.20;;;13.40;1.00;;;;;;4884602;29;20460;-85
2023/05/14 01:14:42;;;;;;;19.37;18.47;;;13.40;84.50;;;;;;4901572;29;20662;-85
2023/05/14 01:17:12;;;;;;;19.40;18.50;;;13.40;1.00;;;;;;4889177;29;20460;-85
2023/05/14 01:19:42;;;;;;;19.50;18.30;;;13.30;68.60;;;;;;4888414;29;20527;-85
2023/05/14 01:22:12;;;;;;;20.07;19.07;;;13.40;72.60;;;;;;4888666;29;20456;-86
2023/05/14 01:24:40;;;;;;;20.70;19.60;;;13.40;72.90;;;;;;4887593;29;20480;-85
2023/05/14 01:27:18;;;;;;;18.93;18.07;;;13.40;1.00;;;;;;4888734;29;20476;-85
2023/05/14 01:29:59;;;;;;;20.07;19.10;;;13.30;1.00;;;;;;4899270;29;20985;-84
2023/05/14 01:32:30;;;;;;;19.80;18.87;;;13.30;1.00;;;;;;4884550;29;20694;-84
2023/05/14 01:35:00;;;;;;;19.70;18.80;;;13.30;24.50;;;;;;4887190;29;20577;-85
2023/05/14 01:37:31;;;;;;;19.37;18.37;;;13.30;99.90;;;;;;4889255;29;20465;-84
2023/05/14 01:40:00;;;;;;;20.27;19.20;;;13.30;1.00;;;;;;4886645;29;20521;-85
2023/05/14 01:42:29;;;;;;;19.90;18.80;;;13.30;1.00;;;;;;4890383;29;20470;-85
2023/05/14 01:44:57;;;;;;;20.67;19.67;;;13.30;1.00;;;;;;4891213;29;20510;-83
2023/05/14 01:47:25;;;;;;;20.07;19.17;;;13.30;99.90;;;;;;4890960;29;20571;-83
2023/05/14 01:49:53;;;;;;;18.77;17.97;;;13.30;99.90;;;;;;4891062;29;20514;-83
2023/05/14 01:52:22;;;;;;;19.23;18.33;;;13.30;99.90;;;;;;4891348;29;20484;-84
2023/05/14 01:54:51;;;;;;;19.07;18.10;;;13.30;99.90;;;;;;4890894;29;20503;-85
2023/05/14 01:57:20;;;;;;;18.83;17.93;;;13.30;99.90;;;;;;4891428;29;20466;-83
2023/05/14 01:59:48;;;;;;;19.40;18.10;;;13.20;99.90;;;;;;4892153;29;20505;-84
2023/05/14 02:02:16;;;;;;;20.10;19.10;;;13.20;99.90;;;;;;4890172;29;20466;-83
2023/05/14 02:04:44;;;;;;;19.37;18.47;;;13.30;99.90;;;;;;4888362;29;20489;-82
2023/05/14 02:07:12;;;;;;;19.90;19.00;;;13.20;99.90;;;;;;4892825;29;20968;-84
2023/05/14 02:09:41;;;;;;;19.00;18.00;;;13.20;99.90;;;;;;4893178;29;20470;-83
2023/05/14 02:12:11;;;;;;;19.63;18.73;;;13.20;97.40;;;;;;4892326;29;20473;-83
2023/05/14 02:14:39;;;;;;;20.03;18.90;;;13.20;99.90;;;;;;4892342;29;20478;-83
2023/05/14 02:17:07;;;;;;;18.73;17.93;;;13.10;99.90;;;;;;4891916;29;20462;-85
2023/05/14 02:19:35;;;;;;;20.07;18.87;;;13.10;99.90;;;;;;4891905;29;20520;-86
2023/05/14 02:22:04;;;;;;;19.33;18.30;;;13.10;99.90;;;;;;4890615;29;20482;-86
2023/05/14 02:24:32;;;;;;;20.37;19.37;;;13.10;99.90;;;;;;4891329;29;20484;-85
2023/05/14 02:27:00;;;;;;;20.27;19.27;;;13.00;99.90;;;;;;4892278;29;20457;-86
2023/05/14 02:29:30;;;;;;;19.47;18.57;;;13.00;99.90;;;;;;4890149;29;20496;-85
2023/05/14 02:31:58;;;;;;;19.53;18.53;;;12.90;1.00;;;;;;4891581;29;20975;-85
2023/05/14 02:34:26;;;;;;;20.30;19.10;;;12.90;1.00;;;;;;4893385;29;20512;-85
2023/05/14 02:36:55;;;;;;;20.30;19.23;;;12.80;3.10;;;;;;4890948;29;20473;-85
2023/05/14 02:39:23;;;;;;;20.40;19.43;;;12.80;1.00;;;;;;4893053;29;20465;-85
2023/05/14 02:41:51;;;;;;;20.20;19.10;;;12.80;99.90;;;;;;4887797;29;21197;-85
2023/05/14 02:44:19;;;;;;;20.27;19.17;;;12.80;1.00;;;;;;4890789;29;20846;-85
2023/05/14 02:46:48;;;;;;;20.60;19.47;;;12.70;99.90;;;;;;4890575;29;20941;-85
2023/05/14 02:49:17;;;;;;;20.97;19.67;;;12.70;99.90;;;;;;4895270;29;20492;-84
2023/05/14 02:51:45;;;;;;;21.00;20.00;;;12.70;99.90;;;;;;4890816;29;21003;-85
2023/05/14 02:54:15;;;;;;;21.13;20.10;;;12.70;99.90;;;;;;4890808;29;20490;-85
2023/05/14 02:56:43;;;;;;;20.23;19.17;;;12.70;99.90;;;;;;4889670;29;20464;-84
2023/05/14 02:59:11;;;;;;;20.90;19.70;;;12.60;1.00;;;;;;4884491;29;20507;-85
2023/05/14 03:01:40;;;;;;;21.70;20.60;;;12.60;99.90;;;;;;4891966;29;20833;-84
2023/05/14 03:04:10;;;;;;;21.90;20.30;;;12.70;99.90;;;;;;4888045;29;20477;-85
2023/05/14 03:06:38;;;;;;;20.37;19.37;;;12.70;99.90;;;;;;4892024;29;20480;-86
2023/05/14 03:09:06;;;;;;;20.33;19.37;;;12.70;69.30;;;;;;4890510;29;21053;-85
2023/05/14 03:11:35;;;;;;;19.63;18.63;;;12.70;99.90;;;;;;4890974;29;20537;-84
2023/05/14 03:14:03;;;;;;;20.73;19.73;;;12.80;1.00;;;;;;4890951;29;20477;-85
2023/05/14 03:16:31;;;;;;;21.27;20.10;;;12.80;1.00;;;;;;4891336;29;20488;-85
2023/05/14 03:18:59;;;;;;;21.30;20.10;;;12.80;1.00;;;;;;4888706;29;20557;-85
2023/05/14 03:21:30;;;;;;;21.17;19.97;;;12.70;99.90;;;;;;4892274;29;20547;-85
2023/05/14 03:23:58;;;;;;;22.00;20.70;;;12.70;1.00;;;;;;4890312;29;20458;-85
2023/05/14 03:26:26;;;;;;;21.27;20.10;;;12.70;99.90;;;;;;4886002;29;20888;-85
2023/05/14 03:28:55;;;;;;;21.80;20.60;;;12.70;99.90;;;;;;4887489;29;20452;-85
2023/05/14 03:31:23;;;;;;;21.90;20.60;;;12.80;99.90;;;;;;4888999;29;20593;-85
2023/05/14 03:33:52;;;;;;;21.43;20.33;;;12.80;99.90;;;;;;4890772;29;20471;-85
2023/05/14 03:36:20;;;;;;;22.20;21.00;;;12.80;99.90;;;;;;4891143;29;20494;-84
2023/05/14 03:38:49;;;;;;;20.80;19.70;;;12.70;99.90;;;;;;4889094;29;20474;-83
2023/05/14 03:41:18;;;;;;;21.10;19.90;;;12.80;99.90;;;;;;4890671;29;20464;-83
2023/05/14 03:43:47;;;;;;;21.90;20.60;;;12.80;82.70;;;;;;4886257;29;20521;-84
2023/05/14 03:46:15;;;;;;;21.43;20.33;;;12.80;1.00;;;;;;4885825;29;20457;-84
2023/05/14 03:48:43;;;;;;;23.40;21.90;;;12.80;99.90;;;;;;4889063;29;20454;-82
2023/05/14 03:51:11;;;;;;;21.77;20.67;;;12.70;99.90;;;;;;4890853;29;20465;-82
2023/05/14 03:53:40;;;;;;;21.23;20.10;;;12.80;99.90;;;;;;4887966;29;20464;-84
2023/05/14 03:56:09;;;;;;;22.10;20.80;;;12.80;99.90;;;;;;4891320;29;20489;-84
2023/05/14 03:58:37;;;;;;;22.33;21.00;;;12.70;99.90;;;;;;4888007;29;20458;-84
2023/05/14 04:01:05;;;;;;;21.37;20.27;;;12.70;99.90;;;;;;4881425;29;21002;-84
2023/05/14 04:03:34;;;;;;;20.07;19.00;;;12.80;99.90;;;;;;4887550;29;20456;-84
2023/05/14 04:06:02;;;;;;;21.57;20.40;;;12.70;99.90;;;;;;4890368;29;20486;-83
2023/05/14 04:08:30;;;;;;;20.53;19.53;;;12.70;99.90;;;;;;4885193;29;20469;-85
2023/05/14 04:10:58;;;;;;;21.93;20.57;;;12.80;99.90;;;;;;4890892;29;20952;-83
2023/05/14 04:13:28;;;;;;;21.10;20.00;;;12.80;99.90;;;;;;4891317;29;20469;-84
2023/05/14 04:15:56;;;;;;;21.57;20.40;;;12.80;92.10;;;;;;4882939;29;20854;-84
2023/05/14 04:18:25;;;;;;;21.53;20.33;;;12.70;99.90;;;;;;4885898;29;20466;-84
2023/05/14 04:20:53;;;;;;;21.80;20.40;;;12.70;99.90;;;;;;4888415;29;20488;-85
2023/05/14 04:23:22;;;;;;;21.27;20.07;;;12.70;99.70;;;;;;4888434;29;20466;-84
2023/05/14 04:25:50;;;;;;;21.20;20.10;;;12.70;99.90;;;;;;4887323;29;20872;-86
2023/05/14 04:28:18;;;;;;;22.70;21.40;;;12.70;99.90;;;;;;4889426;29;20536;-84
2023/05/14 04:30:48;;;;;;;22.70;21.43;;;12.70;99.90;;;;;;4886249;29;20982;-84
2023/05/14 04:33:16;;;;;;;22.40;21.10;;;12.70;1.00;;;;;;4887365;29;20494;-84
2023/05/14 04:35:45;;;;;;;22.53;21.20;;;12.60;1.00;;;;;;4887347;29;20984;-82
2023/05/14 04:38:14;;;;;;;21.97;20.77;;;12.70;1.00;;;;;;4887676;29;20512;-83
2023/05/14 04:40:42;;;;;;;21.33;20.23;;;12.60;99.90;;;;;;4886872;29;20460;-84
2023/05/14 04:43:10;;;;;;;22.33;21.03;;;12.70;1.00;;;;;;4887447;29;20992;-84
2023/05/14 04:45:39;;;;;;;21.97;20.67;;;12.60;1.00;;;;;;4900343;29;20491;-84
2023/05/14 04:48:09;;;;;;;22.27;20.93;;;12.60;1.00;;;;;;4886907;29;20459;-84
2023/05/14 04:50:38;;;;;;;22.20;21.00;;;12.70;1.00;;;;;;4886856;29;20458;-86
2023/05/14 04:53:06;;;;;;;22.50;21.30;;;12.70;1.00;;;;;;4888730;29;20472;-85
2023/05/14 04:55:34;;;;;;;21.90;20.73;;;12.70;1.00;;;;;;4886848;29;21021;-85
2023/05/14 04:58:02;;;;;;;22.33;21.13;;;12.70;1.00;;;;;;4885371;29;20477;-83
2023/05/14 05:00:30;;;;;;;21.40;20.20;;;12.70;1.00;;;;;;4902304;29;20561;-86
2023/05/14 05:02:59;;;;;;;22.00;20.70;;;12.70;1.00;;;;;;4888347;29;20464;-86
2023/05/14 05:05:29;;;;;;;21.93;20.63;;;12.80;1.00;;;;;;4883391;29;20476;-84
2023/05/14 05:07:57;;;;;;;22.07;20.70;;;12.70;99.90;;;;;;4885716;29;20492;-85
2023/05/14 05:10:25;;;;;;;21.33;20.23;;;12.70;1.00;;;;;;4887000;29;20462;-84
2023/05/14 05:12:53;;;;;;;21.70;20.60;;;12.70;1.00;;;;;;4885159;29;20482;-86
2023/05/14 05:15:21;;;;;;;22.17;21.00;;;12.70;1.00;;;;;;4881842;29;20508;-84
2023/05/14 05:17:53;;;;;;;22.00;20.90;;;12.70;1.00;;;;;;4885764;29;20918;-83
2023/05/14 05:20:22;;;;;;;22.33;21.00;;;12.80;49.80;;;;;;4888518;29;20453;-84
2023/05/14 05:22:52;;;;;;;22.70;21.40;;;12.80;26.20;;;;;;4887985;29;20460;-84
2023/05/14 05:25:20;;;;;;;21.93;20.73;;;12.80;1.00;;;;;;4886808;29;20522;-83
2023/05/14 05:27:48;;;;;;;22.53;21.20;;;12.80;62.00;;;;;;4891635;29;20466;-82
2023/05/14 05:30:16;;;;;;;23.43;22.03;;;12.80;1.00;;;;;;4883846;29;20469;-83
2023/05/14 05:32:44;;;;;;;21.80;20.50;;;12.90;1.00;;;;;;4887024;29;20468;-82
2023/05/14 05:35:13;;;;;;;23.17;21.77;;;12.90;1.00;;;;;;4885764;29;20500;-82
2023/05/14 05:37:44;;;;;;;23.20;21.90;;;12.90;1.00;;;;;;4885805;29;20500;-81
2023/05/14 05:40:14;;;;;;;23.50;22.00;;;13.00;1.00;;;;;;4883533;29;20461;-84
2023/05/14 05:42:42;;;;;;;21.70;20.50;;;12.90;99.90;;;;;;4888903;29;20489;-77
2023/05/14 05:45:11;;;;;;;21.77;20.67;;;12.90;1.00;;;;;;4883889;29;20512;-79
2023/05/14 05:47:39;;;;;;;24.17;22.58;;;13.00;1.00;;;;;;4884868;29;20721;-80
2023/05/14 05:50:08;;;;;;;24.50;22.98;;;13.00;1.00;;;;;;4889015;29;20452;-81
2023/05/14 05:52:37;;;;;;;23.40;22.10;;;12.90;1.00;;;;;;4890314;29;20206;-83
2023/05/14 05:55:06;;;;;;;24.20;22.77;;;13.00;99.90;;;;;;4886766;29;20497;-81
2023/05/14 05:57:35;;;;;;;23.90;22.23;;;13.10;1.00;;;;;;4890125;29;21092;-80
2023/05/14 06:00:11;;;;;;;23.67;22.03;;;13.10;1.00;;;;;;4881362;29;20470;-82
2023/05/14 06:02:40;;;;;;;22.90;21.60;;;13.20;99.90;;;;;;4885547;29;20568;-82
2023/05/14 06:05:09;;;;;;;22.27;21.00;;;13.10;1.00;;;;;;4884431;29;20489;-83
2023/05/14 06:07:38;;;;;;;22.07;20.77;;;13.10;99.90;;;;;;4887854;29;20488;-81
2023/05/14 06:10:07;;;;;;;23.03;21.73;;;13.20;99.90;;;;;;4888863;29;20470;-81
2023/05/14 06:12:37;;;;;;;23.80;21.93;;;13.20;99.90;;;;;;4890706;29;20466;-82
2023/05/14 06:15:06;;;;;;;22.37;21.17;;;13.20;1.00;;;;;;4890828;29;20485;-83
2023/05/14 06:17:34;;;;;;;23.53;22.13;;;13.20;1.00;;;;;;4881535;29;20500;-81
2023/05/14 06:20:04;;;;;;;23.03;21.90;;;13.20;1.00;;;;;;4888750;29;20968;-81
2023/05/14 06:22:32;;;;;;;22.63;21.33;;;13.20;74.20;;;;;;4888122;29;20468;-81
2023/05/14 06:25:00;;;;;;;22.33;21.03;;;13.20;7.50;;;;;;4880572;29;20482;-82
2023/05/14 06:27:28;;;;;;;23.17;21.77;;;13.30;1.00;;;;;;4884421;29;20476;-80
2023/05/14 06:29:58;;;;;;;22.60;21.30;;;13.20;1.00;;;;;;4890326;29;20453;-83
2023/05/14 06:32:29;;;;;;;21.83;20.63;;;13.20;1.00;;;;;;4886143;29;20470;-82
2023/05/14 06:34:57;;;;;;;22.00;20.80;;;13.30;1.00;;;;;;4887692;29;20840;-81
2023/05/14 06:37:25;;;;;;;22.77;21.40;;;13.30;1.00;;;;;;4891267;29;20486;-81
2023/05/14 06:39:53;;;;;;;22.17;20.97;;;13.30;99.90;;;;;;4889327;29;20477;-80
2023/05/14 06:42:25;;;;;;;21.00;20.00;;;13.40;1.00;;;;;;4887823;29;20570;-81
2023/05/14 06:44:53;;;;;;;21.60;20.40;;;13.40;1.00;;;;;;4888692;29;20489;-80
2023/05/14 06:47:23;;;;;;;22.23;21.03;;;13.40;99.90;;;;;;4887078;29;20461;-82
2023/05/14 06:49:51;;;;;;;22.17;20.97;;;13.40;1.00;;;;;;4890460;29;20997;-82
2023/05/14 06:52:19;;;;;;;22.43;21.10;;;13.30;99.90;;;;;;4884651;29;20692;-82
2023/05/14 06:54:47;;;;;;;23.10;21.60;;;13.30;99.90;;;;;;4881738;29;20478;-79
2023/05/14 06:57:15;;;;;;;27.93;25.43;;;13.30;1.00;;;;;;4880339;29;20494;-80
2023/05/14 06:59:43;;;;;;;25.70;23.97;;;13.40;99.90;;;;;;4881582;29;20473;-82
2023/05/14 07:02:12;;;;;;;22.10;20.73;;;13.40;1.00;;;;;;4882936;29;20466;-82
2023/05/14 07:04:42;;;;;;;21.90;20.60;;;13.50;99.90;;;;;;4883850;29;20502;-83
2023/05/14 07:07:14;;;;;;;22.40;21.30;;;13.50;1.00;;;;;;4888944;29;20818;-81
2023/05/14 07:09:42;;;;;;;23.37;21.97;;;13.60;1.00;;;;;;4892283;29;20473;-80
2023/05/14 07:12:10;;;;;;;22.70;21.27;;;13.60;99.90;;;;;;4886927;29;20469;-82
2023/05/14 07:14:45;;;;;;;21.50;20.33;;;13.70;99.90;;;;;;4886223;29;20485;-84
2023/05/14 07:17:13;;;;;;;22.73;21.33;;;13.80;99.90;;;;;;4880858;29;20481;-82
2023/05/14 07:19:43;;;;;;;21.73;20.43;;;13.80;1.00;;;;;;4884635;29;20523;-81
2023/05/14 07:22:11;;;;;;;21.60;20.40;;;13.80;1.00;;;;;;4889269;29;20461;-83
2023/05/14 07:24:39;;;;;;;22.70;21.37;;;13.80;99.90;;;;;;4892310;29;20496;-81
2023/05/14 07:27:08;;;;;;;22.03;20.83;;;13.80;61.50;;;;;;4893047;29;20540;-81
2023/05/14 07:29:36;;;;;;;22.70;21.30;;;13.80;99.90;;;;;;4892505;29;20458;-82
2023/05/14 07:32:05;;;;;;;24.20;22.77;;;13.80;99.90;;;;;;4891852;29;20533;-83
2023/05/14 07:34:33;;;;;;;22.60;21.40;;;13.90;1.00;;;;;;4891765;29;20489;-82
2023/05/14 07:37:03;;;;;;;23.20;21.90;;;13.90;99.90;;;;;;4894119;29;21119;-82
2023/05/14 07:39:31;;;;;;;22.63;21.30;;;13.90;99.90;;;;;;4892331;29;20996;-82
2023/05/14 07:42:00;;;;;;;22.93;21.43;;;14.00;1.00;;;;;;4892874;29;20569;-81
2023/05/14 07:44:28;;;;;;;26.57;24.40;;;14.00;99.90;;;;;;4892018;29;20478;-83
2023/05/14 07:46:56;;;;;;;22.93;21.57;;;14.00;1.00;;;;;;4888354;29;20455;-81
2023/05/14 07:49:24;;;;;;;21.77;20.67;;;14.00;91.20;;;;;;4887993;29;20470;-83
2023/05/14 07:51:53;;;;;;;22.13;21.10;;;14.00;1.00;;;;;;4887396;29;21039;-80
2023/05/14 07:54:23;;;;;;;23.73;22.40;;;14.10;99.90;;;;;;4882776;29;20489;-82
2023/05/14 07:56:51;;;;;;;22.43;21.23;;;14.10;1.00;;;;;;4884026;29;22253;-81
2023/05/14 07:59:20;;;;;;;24.33;22.80;;;14.20;41.20;;;;;;4884673;29;20466;-83
2023/05/14 08:01:48;;;;;;;23.87;22.57;;;14.20;1.00;;;;;;4883777;29;20474;-81
2023/05/14 08:04:16;;;;;;;24.43;23.07;;;14.30;1.00;;;;;;4882795;29;20505;-81
2023/05/14 08:06:45;;;;;;;24.43;22.93;;;14.30;35.80;;;;;;4885778;29;20530;-83
2023/05/14 08:09:13;;;;;;;23.83;22.53;;;14.30;1.00;;;;;;4885722;29;20550;-82
2023/05/14 08:11:42;;;;;;;23.93;22.43;;;14.30;1.00;;;;;;4885807;29;20539;-83
2023/05/14 08:14:11;;;;;;;23.83;22.50;;;14.40;1.00;;;;;;4884862;29;20487;-81
2023/05/14 08:16:39;;;;;;;22.70;21.60;;;14.50;1.00;;;;;;4882386;29;20474;-82
2023/05/14 08:19:07;;;;;;;23.90;22.60;;;14.50;1.00;;;;;;4890514;29;20464;-83
2023/05/14 08:21:35;;;;;;;24.50;23.20;;;14.50;99.90;;;;;;4887882;29;20459;-82
2023/05/14 08:24:04;;;;;;;23.93;22.60;;;14.60;99.90;;;;;;4890205;29;20969;-83
2023/05/14 08:26:32;;;;;;;23.67;22.43;;;14.60;16.00;;;;;;4883580;29;20873;-83
2023/05/14 08:29:01;;;;;;;25.13;23.63;;;14.70;99.90;;;;;;4885344;29;20448;-83
2023/05/14 08:31:30;;;;;;;24.17;22.63;;;14.70;99.90;;;;;;4892995;29;20456;-81
2023/05/14 08:33:58;;;;;;;25.40;23.40;;;14.80;99.90;;;;;;4887497;29;20512;-81
2023/05/14 08:36:26;;;;;;;23.60;22.20;;;14.90;1.00;;;;;;4889609;29;20451;-81
2023/05/14 08:38:55;;;;;;;24.80;23.30;;;14.90;99.90;;;;;;4887614;29;20488;-83
2023/05/14 08:41:23;;;;;;;22.90;21.70;;;14.90;99.90;;;;;;4886130;29;20463;-84
2023/05/14 08:44:00;;;;;;;24.10;22.80;;;14.90;1.00;;;;;;4890868;29;20877;-82
2023/05/14 08:46:31;;;;;;;24.00;22.50;;;15.00;1.00;;;;;;4891507;29;20977;-83
2023/05/14 08:49:09;;;;;;;24.30;22.90;;;15.00;99.90;;;;;;4888082;29;20465;-83
2023/05/14 08:51:56;;;;;;;24.10;22.70;;;15.00;99.90;;;;;;4891186;29;20458;-83
2023/05/14 08:54:25;;;;;;;24.00;22.60;;;15.00;99.90;;;;;;4888613;29;20928;-82
2023/05/14 08:56:54;;;;;;;24.40;23.00;;;15.00;99.90;;;;;;4902567;29;20465;-82
2023/05/14 08:59:22;;;;;;;24.37;22.87;;;15.10;1.00;;;;;;4890792;29;20575;-82
2023/05/14 09:01:58;;;;;;;24.83;23.43;;;15.20;1.00;;;;;;4891806;29;20464;-82
2023/05/14 09:04:38;;;;;;;25.27;23.77;;;15.30;1.00;;;;;;4886226;29;20557;-83
2023/05/14 09:07:11;;;;;;;24.27;22.83;;;15.30;1.00;;;;;;4890232;29;20556;-83
2023/05/14 09:09:40;;;;;;;23.93;22.67;;;15.50;99.90;;;;;;4892169;29;20460;-81
2023/05/14 09:12:09;;;;;;;24.13;22.87;;;15.60;99.90;;;;;;4889757;29;20475;-83
2023/05/14 09:14:37;;;;;;;24.20;22.80;;;15.60;9.80;;;;;;4890062;29;20504;-84
2023/05/14 09:17:12;;;;;;;24.23;22.93;;;15.70;98.20;;;;;;4884066;29;20479;-82
2023/05/14 09:30:53;;;;;;;23.00;21.70;;;16.20;84.70;;;;;;4900462;29;20473;-82
2023/05/14 09:33:28;;;;;;;22.80;21.60;;;16.20;1.00;;;;;;4890325;29;20491;-81
2023/05/14 09:36:01;;;;;;;23.50;22.20;;;16.20;1.00;;;;;;4883633;29;20615;-81
2023/05/14 09:38:30;;;;;;;23.83;22.53;;;16.20;1.00;;;;;;4886441;29;20494;-79
2023/05/14 09:41:10;;;;;;;23.70;22.50;;;16.10;99.90;;;;;;4885043;29;20524;-80
2023/05/14 09:43:53;;;;;;;23.83;22.60;;;16.00;99.90;;;;;;4883871;29;20461;-81
2023/05/14 09:50:27;;;;;;;22.47;21.27;;;15.90;99.90;;;;;;4882035;29;21323;-82
2023/05/14 09:53:16;;;;;;;22.23;21.10;;;15.80;99.90;;;;;;4887528;29;20477;-79
2023/05/14 09:55:48;;;;;;;21.90;20.80;;;15.80;99.90;;;;;;4887084;29;20977;-81
2023/05/14 09:58:21;;;;;;;22.47;21.30;;;15.80;99.90;;;;;;4888595;29;20488;-81
2023/05/14 10:02:17;;;;;;;23.03;21.90;;;15.80;99.90;;;;;;4859453;29;20489;-82
2023/05/14 10:04:45;;;;;;;24.80;23.40;;;15.80;99.90;;;;;;4879453;29;20552;-80
2023/05/14 10:15:03;;;;;;;22.80;21.50;;;15.90;99.90;;;;;;4853143;29;20483;-81
2023/05/14 10:17:34;;;;;;;23.30;22.10;;;16.00;99.90;;;;;;4879971;29;20454;-81
2023/05/14 10:20:07;;;;;;;23.07;21.77;;;16.10;99.90;;;;;;4893144;29;20493;-80
2023/05/14 10:22:36;;;;;;;22.80;21.70;;;16.20;99.90;;;;;;4894316;29;20488;-82
2023/05/14 10:25:05;;;;;;;22.03;20.93;;;16.40;99.90;;;;;;4892378;29;20550;-81
2023/05/14 10:27:36;;;;;;;20.47;19.67;;;16.50;99.90;;;;;;4895031;29;20901;-82
2023/05/14 10:30:11;;;;;;;21.10;20.20;;;16.60;52.90;;;;;;4894421;29;20550;-82
2023/05/14 10:32:42;;;;;;;20.93;20.03;;;16.60;1.00;;;;;;4894970;29;20453;-82
2023/05/14 10:35:24;;;;;;;20.73;19.80;;;16.70;1.00;;;;;;4892737;29;20840;-83
2023/05/14 10:37:52;;;;;;;20.73;19.83;;;16.80;1.00;;;;;;4893964;29;20466;-80
2023/05/14 10:40:24;;;;;;;20.23;19.33;;;17.00;1.00;;;;;;4894243;29;20489;-82
2023/05/14 10:42:59;;;;;;;19.90;19.10;;;17.00;1.00;;;;;;4894602;29;20490;-81
2023/05/14 10:45:29;;;;;;;20.20;19.40;;;17.10;1.00;;;;;;4891473;29;20936;-82
2023/05/14 10:47:57;;;;;;;20.97;20.00;;;17.10;1.00;;;;;;4891716;29;20460;-81
2023/05/14 10:50:26;;;;;;;20.17;19.37;;;17.20;1.00;;;;;;4894637;29;20450;-83
2023/05/14 10:52:56;;;;;;;20.43;19.63;;;17.20;1.00;;;;;;4895249;29;20466;-84
2023/05/14 10:55:25;;;;;;;21.23;20.23;;;17.30;1.00;;;;;;4893345;29;20493;-84
2023/05/14 10:58:00;;;;;;;21.23;20.33;;;17.30;1.00;;;;;;4906928;29;20459;-82
2023/05/14 11:00:28;;;;;;;22.13;21.13;;;17.30;1.00;;;;;;4890234;29;20553;-84
2023/05/14 11:02:57;;;;;;;22.10;21.10;;;17.30;1.00;;;;;;4893880;29;20462;-81
2023/05/14 11:05:26;;;;;;;22.20;21.20;;;17.30;1.00;;;;;;4888198;29;20852;-80
2023/05/14 11:07:57;;;;;;;21.50;20.60;;;17.40;1.00;;;;;;4891132;29;20486;-84
2023/05/14 11:10:28;;;;;;;21.87;20.77;;;17.50;1.00;;;;;;4894569;29;20447;-83
2023/05/14 11:12:58;;;;;;;22.30;21.20;;;17.50;1.00;;;;;;4907528;29;20466;-80
2023/05/14 11:15:27;;;;;;;21.70;20.50;;;17.60;1.00;;;;;;4891891;29;20501;-76
2023/05/14 11:17:55;;;;;;;22.87;21.77;;;17.60;1.00;;;;;;4883293;29;20488;-80
2023/05/14 11:20:23;;;;;;;21.40;20.40;;;17.60;1.00;;;;;;4889242;29;20525;-78
2023/05/14 11:22:52;;;;;;;20.53;19.60;;;17.50;1.00;;;;;;4888188;29;20542;-80
2023/05/14 11:25:21;;;;;;;21.13;20.23;;;17.50;1.00;;;;;;4889952;29;20509;-82
2023/05/14 11:27:50;;;;;;;21.50;20.50;;;17.70;1.00;;;;;;4891321;29;20550;-83
2023/05/14 11:30:21;;;;;;;20.83;19.93;;;17.80;1.00;;;;;;4904523;29;20550;-84
2023/05/14 11:32:50;;;;;;;20.00;19.20;;;17.80;1.00;;;;;;4894533;29;21020;-80
2023/05/14 11:35:18;;;;;;;20.70;19.80;;;17.70;1.00;;;;;;4883342;29;20494;-82
2023/05/14 11:37:51;;;;;;;20.07;19.17;;;17.70;1.00;;;;;;4893613;29;20977;-84
2023/05/14 11:40:20;;;;;;;19.43;18.60;;;17.70;1.00;;;;;;4893356;29;20478;-80
2023/05/14 11:42:51;;;;;;;19.37;18.67;;;17.70;1.00;;;;;;4893415;29;20932;-82
2023/05/14 11:45:28;;;;;;;20.10;19.13;;;17.70;1.00;;;;;;4892913;29;20485;-82
2023/05/14 11:47:56;;;;;;;19.43;18.63;;;17.60;99.90;;;;;;4893401;29;20528;-82
2023/05/14 11:50:24;;;;;;;19.30;18.57;;;17.70;99.90;;;;;;4893805;29;20455;-82
2023/05/14 11:52:56;;;;;;;21.13;20.03;;;17.70;99.90;;;;;;4891542;29;20503;-82
2023/05/14 11:55:24;;;;;;;22.53;21.50;;;17.80;99.90;;;;;;4892769;29;20500;-85
2023/05/14 11:57:53;;;;;;;23.50;22.30;;;17.80;99.90;;;;;;4891710;29;20467;-81
2023/05/14 12:00:23;;;;;;;21.43;20.43;;;17.70;99.90;;;;;;4892164;29;21020;-82
2023/05/14 12:02:54;;;;;;;19.73;18.83;;;17.70;99.90;;;;;;4891876;29;20844;-81
2023/05/14 12:05:22;;;;;;;21.00;20.00;;;17.60;1.00;;;;;;4892939;29;20751;-82
2023/05/14 12:07:50;;;;;;;21.73;20.60;;;17.60;99.90;;;;;;4892545;29;20828;-80
2023/05/14 12:10:19;;;;;;;21.80;20.70;;;17.50;99.90;;;;;;4893168;29;20538;-81
2023/05/14 12:12:48;;;;;;;21.17;20.17;;;17.50;99.90;;;;;;4891644;29;20845;-83
2023/05/14 12:15:17;;;;;;;20.53;19.63;;;17.50;1.00;;;;;;4884297;29;20483;-80
2023/05/14 12:17:50;;;;;;;20.43;19.50;;;17.50;1.00;;;;;;4891185;29;20466;-84
2023/05/14 12:20:20;;;;;;;20.23;19.33;;;17.40;1.00;;;;;;4892650;29;20525;-81
2023/05/14 12:22:49;;;;;;;20.93;19.57;;;17.50;99.90;;;;;;4891406;29;20474;-81
2023/05/14 12:25:17;;;;;;;20.80;19.80;;;17.60;1.00;;;;;;4890897;29;20490;-82
2023/05/14 12:27:45;;;;;;;20.90;19.70;;;17.60;1.00;;;;;;4886494;29;20471;-83
2023/05/14 12:30:14;;;;;;;22.13;20.93;;;17.60;1.00;;;;;;4885574;29;20466;-82
2023/05/14 12:32:45;;;;;;;20.27;19.30;;;17.60;99.90;;;;;;4894610;29;20912;-82
2023/05/14 12:35:13;;;;;;;20.37;19.37;;;17.50;1.00;;;;;;4893744;29;21100;-84
2023/05/14 12:37:43;;;;;;;20.77;19.80;;;17.50;1.00;;;;;;4889011;29;20451;-82
2023/05/14 12:40:12;;;;;;;20.73;19.23;;;17.50;1.00;;;;;;4888818;29;20485;-84
2023/05/14 12:42:40;;;;;;;20.23;19.23;;;17.50;1.00;;;;;;4892689;29;20462;-81
2023/05/14 12:45:09;;;;;;;20.10;19.00;;;17.30;1.00;;;;;;4888433;29;20913;-82
2023/05/14 12:47:37;;;;;;;20.50;19.40;;;17.30;1.00;;;;;;4888849;29;20458;-83
2023/05/14 12:50:06;;;;;;;19.60;18.67;;;17.40;1.00;;;;;;4887971;29;20463;-80
2023/05/14 12:52:34;;;;;;;19.30;18.50;;;17.40;1.00;;;;;;4889101;29;20484;-81
2023/05/14 12:55:09;;;;;;;18.97;18.17;;;17.40;1.00;;;;;;4888033;29;20489;-83
2023/05/14 12:57:37;;;;;;;20.13;19.10;;;17.40;1.00;;;;;;4888040;29;20474;-82
2023/05/14 13:00:09;;;;;;;19.37;18.47;;;17.40;1.00;;;;;;4891140;29;20495;-82
2023/05/14 13:02:40;;;;;;;19.83;18.93;;;17.40;1.00;;;;;;4889574;29;20948;-82
2023/05/14 13:05:11;;;;;;;19.43;18.53;;;17.40;1.00;;;;;;4890895;29;20577;-81
2023/05/14 13:07:39;;;;;;;19.33;18.43;;;17.30;1.00;;;;;;4889609;29;20545;-82
2023/05/14 13:10:10;;;;;;;19.50;18.47;;;17.30;1.00;;;;;;4890774;29;20454;-82